Time;durP1;ratioP1;P1;durP2;ratioP2;P2;SDS_P1;SDS_P2;PMS_P1;PMS_P2;Temp;Humidity;BMP_temperature;BMP_pressure;BME280_temperature;BME280_humidity;BME280_pressure;Samples;Min_cycle;Max_cycle;Signal;HPM_P1;HPM_P2
2022/03/22 00:00:30;;;;;;;29.42;16.33;;;;;;;9.00;65.26;102842.19;5057227;28;20129;-68
2022/03/22 00:02:57;;;;;;;31.95;17.02;;;;;;;9.11;64.88;102850.13;5064889;28;20037;-69
2022/03/22 00:16:45;;;;;;;37.88;17.42;;;;;;;9.05;64.65;102847.09;5060414;28;20039;-69
2022/03/22 00:19:10;;;;;;;33.03;17.15;;;;;;;8.91;64.96;102851.38;5058400;28;20036;-69
2022/03/22 00:21:36;;;;;;;37.17;17.00;;;;;;;8.73;65.65;102857.69;5029023;28;20031;-69
2022/03/22 00:24:02;;;;;;;34.65;17.75;;;;;;;8.65;65.96;102854.75;5060691;28;20028;-69
2022/03/22 00:26:28;;;;;;;31.80;17.10;;;;;;;8.56;66.48;102850.94;5055888;28;20119;-68
2022/03/22 00:28:54;;;;;;;34.83;18.25;;;;;;;8.56;66.17;102859.53;5060872;28;20062;-69
2022/03/22 00:31:19;;;;;;;33.08;16.27;;;;;;;8.58;66.36;102851.69;5041496;28;20049;-69
2022/03/22 00:33:45;;;;;;;33.47;17.35;;;;;;;8.54;66.25;102856.22;5039747;28;20360;-69
2022/03/22 00:36:11;;;;;;;30.50;17.15;;;;;;;8.44;66.74;102867.19;5040060;28;20036;-69
2022/03/22 00:38:36;;;;;;;36.00;17.55;;;;;;;8.37;67.17;102854.59;5040962;28;20429;-69
2022/03/22 00:41:02;;;;;;;33.63;16.92;;;;;;;8.28;67.59;102855.16;5038359;28;20028;-68
2022/03/22 00:43:27;;;;;;;31.13;16.23;;;;;;;8.20;67.88;102857.38;5058680;28;20040;-69
2022/03/22 00:45:54;;;;;;;33.83;18.90;;;;;;;8.17;68.25;102857.53;5063420;28;20036;-69
2022/03/22 00:48:21;;;;;;;42.42;18.02;;;;;;;8.20;68.02;102857.38;5043526;28;20123;-69
2022/03/22 00:50:47;;;;;;;35.60;17.20;;;;;;;8.12;67.90;102857.00;5065006;28;20107;-69
2022/03/22 00:53:17;;;;;;;33.08;17.70;;;;;;;8.16;67.27;102858.47;5046469;28;20036;-69
2022/03/22 00:55:43;;;;;;;31.33;18.08;;;;;;;8.30;66.04;102860.22;5063448;28;20056;-69
2022/03/22 00:58:09;;;;;;;32.97;16.75;;;;;;;8.28;66.02;102859.50;5066033;28;20044;-69
2022/03/22 01:00:35;;;;;;;36.35;17.13;;;;;;;8.30;65.63;102855.88;5067193;28;20043;-69
2022/03/22 01:03:03;;;;;;;37.90;17.55;;;;;;;8.39;65.28;102854.53;5048782;28;20039;-69
2022/03/22 01:05:30;;;;;;;41.92;17.83;;;;;;;8.35;64.82;102860.81;5067432;28;20036;-69
2022/03/22 01:08:01;;;;;;;35.13;17.75;;;;;;;8.24;65.22;102855.44;5065435;28;20508;-69
2022/03/22 01:10:28;;;;;;;36.95;18.17;;;;;;;8.35;64.44;102853.88;5066456;28;20039;-69
2022/03/22 01:12:54;;;;;;;38.83;18.00;;;;;;;8.39;64.17;102857.94;5044216;28;20119;-69
2022/03/22 01:15:23;;;;;;;40.80;18.73;;;;;;;8.35;64.08;102859.03;5047531;28;20043;-68
2022/03/22 01:17:53;;;;;;;39.95;18.10;;;;;;;8.28;64.05;102859.50;5045295;28;20182;-68
2022/03/22 01:20:20;;;;;;;49.25;18.67;;;;;;;8.29;63.98;102850.84;5049818;28;20108;-69
2022/03/22 01:22:48;;;;;;;35.53;18.10;;;;;;;8.27;63.75;102850.91;5044184;28;20024;-69
2022/03/22 01:25:20;;;;;;;38.08;19.38;;;;;;;8.19;64.05;102855.69;5042379;28;20105;-69
2022/03/22 01:27:47;;;;;;;37.22;17.73;;;;;;;8.27;63.38;102856.09;5064225;28;20071;-68
2022/03/22 01:30:15;;;;;;;36.33;17.90;;;;;;;8.28;63.13;102852.56;5045995;28;20036;-69
2022/03/22 01:32:41;;;;;;;36.25;17.40;;;;;;;8.29;62.85;102848.25;5052847;28;20036;-69
2022/03/22 01:35:09;;;;;;;38.78;17.42;;;;;;;8.25;62.93;102850.19;5068301;28;20034;-68
2022/03/22 01:37:35;;;;;;;34.97;17.73;;;;;;;8.20;62.89;102847.03;5070331;28;20056;-69
2022/03/22 01:40:00;;;;;;;35.30;17.48;;;;;;;8.21;62.69;102850.44;5052333;28;20020;-69
2022/03/22 01:42:26;;;;;;;34.47;17.38;;;;;;;8.12;62.74;102849.25;5031645;28;20039;-69
2022/03/22 01:44:52;;;;;;;37.50;17.83;;;;;;;8.05;63.10;102845.34;5064835;28;20033;-69
2022/03/22 01:47:19;;;;;;;37.20;18.30;;;;;;;7.97;63.47;102854.38;5061869;28;20087;-69
2022/03/22 01:49:47;;;;;;;34.25;17.35;;;;;;;7.91;63.79;102848.72;5047400;28;20044;-69
2022/03/22 01:52:19;;;;;;;33.30;17.15;;;;;;;7.79;64.76;102851.09;5041171;28;20039;-69
2022/03/22 01:54:51;;;;;;;38.50;18.48;;;;;;;7.70;65.53;102856.75;5064167;28;20063;-69
2022/03/22 01:57:18;;;;;;;33.35;17.13;;;;;;;7.61;66.27;102849.56;5060832;28;20107;-69
2022/03/22 01:59:45;;;;;;;37.80;17.98;;;;;;;7.56;65.75;102846.41;5047783;28;20039;-69
2022/03/22 02:07:49;;;;;;;33.13;17.05;;;;;;;7.41;66.83;102842.94;5061381;28;20025;-69
2022/03/22 02:10:15;;;;;;;38.30;18.08;;;;;;;7.40;65.37;102834.34;5047669;28;20399;-69
2022/03/22 02:12:47;;;;;;;38.75;17.63;;;;;;;7.34;65.40;102832.09;5059464;28;20402;-69
2022/03/22 02:15:13;;;;;;;40.80;20.25;;;;;;;7.31;65.17;102834.88;5043944;28;20028;-69
2022/03/22 02:17:40;;;;;;;40.65;18.80;;;;;;;7.36;64.82;102829.44;5056739;28;20027;-69
2022/03/22 02:20:06;;;;;;;35.30;17.17;;;;;;;7.53;64.23;102833.66;5048984;28;20120;-69
2022/03/22 02:22:35;;;;;;;42.67;18.92;;;;;;;7.55;63.43;102824.06;5043543;28;20111;-69
2022/03/22 02:25:02;;;;;;;34.17;17.05;;;;;;;7.61;63.04;102823.75;5045757;28;20032;-69
2022/03/22 02:27:30;;;;;;;41.22;18.05;;;;;;;7.63;62.82;102818.47;5041903;28;21703;-68
2022/03/22 02:29:56;;;;;;;38.58;18.48;;;;;;;7.60;62.24;102824.66;5063852;28;20494;-69
2022/03/22 02:32:24;;;;;;;38.38;16.92;;;;;;;7.71;61.94;102819.72;5046176;28;20043;-69
2022/03/22 02:34:50;;;;;;;37.22;18.25;;;;;;;7.69;62.13;102821.53;5063135;28;20547;-69
2022/03/22 02:37:16;;;;;;;37.45;18.00;;;;;;;7.65;62.12;102820.06;5062755;28;20036;-69
2022/03/22 02:39:41;;;;;;;37.13;18.67;;;;;;;7.54;62.08;102819.84;5064810;28;20050;-69
2022/03/22 02:42:07;;;;;;;43.30;17.08;;;;;;;7.66;61.56;102823.47;5046313;28;20043;-68
2022/03/22 02:44:33;;;;;;;36.17;17.95;;;;;;;7.65;61.18;102821.78;5063904;28;20025;-69
2022/03/22 02:46:59;;;;;;;37.03;17.63;;;;;;;7.72;61.19;102820.53;5065244;28;20028;-69
2022/03/22 02:49:24;;;;;;;33.22;17.33;;;;;;;7.60;61.27;102824.66;5064581;28;20048;-69
2022/03/22 02:51:50;;;;;;;36.53;16.88;;;;;;;7.52;61.66;102821.69;5045247;28;20045;-69
2022/03/22 02:54:16;;;;;;;33.42;17.58;;;;;;;7.52;61.59;102824.25;5043134;28;20383;-69
2022/03/22 02:56:42;;;;;;;38.08;18.17;;;;;;;7.55;61.31;102821.50;5044288;28;20033;-69
2022/03/22 02:59:07;;;;;;;38.10;18.83;;;;;;;7.49;61.76;102812.34;5060808;28;20017;-68
2022/03/22 03:01:33;;;;;;;37.13;17.20;;;;;;;7.47;61.25;102824.50;5041465;28;20033;-68
2022/03/22 03:04:00;;;;;;;34.45;16.73;;;;;;;7.43;61.37;102824.78;5062306;28;20032;-69
2022/03/22 03:06:28;;;;;;;33.95;16.90;;;;;;;7.36;62.06;102826.84;5042481;28;20521;-69
2022/03/22 03:08:56;;;;;;;31.90;16.65;;;;;;;7.34;61.63;102823.53;5033578;28;20047;-69
2022/03/22 03:11:21;;;;;;;33.22;17.35;;;;;;;7.37;61.28;102826.78;5058973;28;20025;-69
2022/03/22 03:16:31;;;;;;;35.72;18.25;;;;;;;7.44;61.08;102832.44;5065475;28;20047;-69
2022/03/22 03:18:58;;;;;;;40.45;17.40;;;;;;;7.50;60.17;102828.69;5043845;28;20035;-68
2022/03/22 03:21:23;;;;;;;38.15;17.10;;;;;;;7.51;60.19;102831.16;5044564;28;20032;-69
2022/03/22 03:23:49;;;;;;;34.97;17.75;;;;;;;7.46;60.16;102833.19;5062112;28;20035;-69
2022/03/22 03:26:14;;;;;;;37.08;17.40;;;;;;;7.47;59.94;102834.84;5061428;28;20051;-69
2022/03/22 03:28:40;;;;;;;33.42;16.20;;;;;;;7.51;59.97;102838.91;5043577;28;20033;-69
2022/03/22 03:31:05;;;;;;;35.22;18.10;;;;;;;7.49;59.91;102834.75;5063052;28;20040;-69
2022/03/22 03:33:31;;;;;;;40.72;18.15;;;;;;;7.41;60.29;102840.34;5059254;28;20020;-69
2022/03/22 03:35:56;;;;;;;36.65;16.63;;;;;;;7.50;59.67;102842.41;5028903;28;20036;-69
2022/03/22 03:38:22;;;;;;;38.22;17.17;;;;;;;7.58;59.43;102847.16;5040130;28;20087;-69
2022/03/22 03:43:31;;;;;;;36.45;16.80;;;;;;;7.46;59.41;102846.09;5057373;28;20028;-69
2022/03/22 03:48:42;;;;;;;31.58;15.98;;;;;;;7.52;59.21;102850.09;5062615;28;20433;-69
2022/03/22 03:51:08;;;;;;;34.42;16.75;;;;;;;7.45;59.63;102852.16;5059446;28;20047;-69
2022/03/22 03:53:34;;;;;;;42.40;16.92;;;;;;;7.40;59.78;102854.16;5046843;28;20544;-69
2022/03/22 03:55:59;;;;;;;37.97;17.10;;;;;;;7.37;59.88;102852.59;5060853;28;20063;-69
2022/03/22 03:58:25;;;;;;;34.88;17.45;;;;;;;7.34;59.81;102862.25;5044664;28;20036;-69
2022/03/22 04:00:50;;;;;;;32.35;15.93;;;;;;;7.24;60.27;102858.53;5044977;28;20024;-69
2022/03/22 04:03:16;;;;;;;33.05;17.20;;;;;;;7.22;60.13;102866.34;5061608;28;20035;-68
2022/03/22 04:05:41;;;;;;;40.75;16.88;;;;;;;7.18;60.51;102859.69;5060719;28;20170;-69
2022/03/22 04:08:06;;;;;;;35.38;17.17;;;;;;;7.24;60.13;102861.91;5059147;28;20029;-69
2022/03/22 04:10:34;;;;;;;31.92;16.05;;;;;;;7.19;60.46;102869.91;5062610;28;20402;-68
2022/03/22 04:13:00;;;;;;;41.38;16.08;;;;;;;7.20;60.06;102863.00;5064423;28;20494;-69
2022/03/22 04:15:26;;;;;;;35.53;16.23;;;;;;;7.30;59.41;102864.16;5045969;28;20042;-69
2022/03/22 04:17:52;;;;;;;37.47;17.80;;;;;;;7.27;59.77;102871.22;5042406;28;20043;-69
2022/03/22 04:20:18;;;;;;;37.35;17.08;;;;;;;7.11;60.43;102873.81;5050641;23;20054;-70
2022/03/22 04:22:43;;;;;;;34.72;16.92;;;;;;;7.09;60.09;102871.31;5016359;28;20048;-70
2022/03/22 04:25:09;;;;;;;36.85;16.77;;;;;;;7.08;60.01;102869.66;5019093;28;20041;-70
2022/03/22 04:33:03;;;;;;;31.48;16.38;;;;;;;7.09;60.24;102870.50;5001927;28;20029;-70
2022/03/22 04:35:29;;;;;;;34.28;16.08;;;;;;;6.99;59.80;102870.16;4985004;28;20040;-70
2022/03/22 04:37:56;;;;;;;33.42;16.85;;;;;;;7.08;59.58;102874.81;5005340;28;20030;-70
2022/03/22 04:40:22;;;;;;;38.38;16.60;;;;;;;7.01;60.49;102871.75;4971919;28;20124;-70
2022/03/22 04:42:49;;;;;;;33.20;17.10;;;;;;;6.98;60.12;102869.31;4988816;28;20064;-70
2022/03/22 04:45:15;;;;;;;34.90;17.25;;;;;;;7.04;59.95;102868.16;4984590;28;20042;-70
2022/03/22 04:47:44;;;;;;;32.70;16.50;;;;;;;7.01;59.89;102868.34;5005145;28;20072;-70
2022/03/22 04:50:10;;;;;;;31.92;16.67;;;;;;;6.94;59.92;102867.00;5006521;28;20042;-69
2022/03/22 04:58:07;;;;;;;36.88;16.27;;;;;;;7.04;58.82;102870.72;5003433;28;20050;-70
2022/03/22 05:00:35;;;;;;;33.13;16.67;;;;;;;6.97;59.21;102872.81;4989637;28;20022;-70
2022/03/22 05:03:07;;;;;;;38.65;16.73;;;;;;;6.96;59.29;102875.47;4990962;28;20667;-70
2022/03/22 05:08:18;;;;;;;26.60;14.85;;;;;;;6.83;58.99;102873.53;4983107;28;20362;-70
2022/03/22 05:10:43;;;;;;;33.58;15.65;;;;;;;6.89;58.77;102881.88;4972381;28;20045;-70
2022/03/22 05:13:09;;;;;;;31.80;15.95;;;;;;;6.93;58.87;102879.06;5001470;28;20030;-69
2022/03/22 05:15:34;;;;;;;34.42;17.27;;;;;;;6.96;58.57;102881.47;5004527;28;20026;-69
2022/03/22 05:18:01;;;;;;;38.75;17.05;;;;;;;6.89;58.54;102880.13;4992152;28;20063;-70
2022/03/22 05:20:28;;;;;;;32.13;15.52;;;;;;;6.90;58.54;102880.97;4986807;28;20034;-70
2022/03/22 05:22:53;;;;;;;32.60;15.57;;;;;;;6.87;58.49;102888.84;4981399;28;20053;-70
2022/03/22 05:25:19;;;;;;;35.67;15.38;;;;;;;6.78;58.66;102890.16;4978905;28;20046;-70
2022/03/22 05:27:45;;;;;;;34.13;15.13;;;;;;;6.91;57.93;102892.94;5006189;28;20032;-70
2022/03/22 05:30:11;;;;;;;31.90;16.08;;;;;;;6.89;58.13;102885.28;5000718;28;20029;-70
2022/03/22 05:32:37;;;;;;;32.50;15.85;;;;;;;6.85;58.03;102893.25;5014001;28;20088;-70
2022/03/22 05:35:02;;;;;;;37.72;16.23;;;;;;;6.87;57.84;102891.44;5016644;28;20087;-70
2022/03/22 05:37:28;;;;;;;32.97;15.85;;;;;;;6.86;57.88;102900.09;5010106;28;20459;-70
2022/03/22 05:39:53;;;;;;;33.42;15.80;;;;;;;6.80;58.68;102901.25;4975723;28;20030;-70
2022/03/22 05:42:18;;;;;;;33.72;15.90;;;;;;;6.88;57.67;102903.44;5007804;28;20042;-70
2022/03/22 05:44:44;;;;;;;28.13;14.90;;;;;;;6.83;57.76;102906.22;5008879;28;20034;-70
2022/03/22 05:47:10;;;;;;;30.92;15.18;;;;;;;6.89;57.72;102905.09;4995957;28;20069;-69
2022/03/22 05:49:36;;;;;;;32.42;15.20;;;;;;;6.85;57.51;102906.16;4997207;28;20411;-70
2022/03/22 05:52:06;;;;;;;34.50;15.32;;;;;;;6.99;56.83;102901.13;4981608;28;20038;-70
2022/03/22 05:54:32;;;;;;;31.50;14.80;;;;;;;6.98;56.76;102907.19;4991620;28;20152;-70
2022/03/22 05:56:58;;;;;;;32.47;14.73;;;;;;;6.91;57.09;102903.25;5004959;28;20036;-70
2022/03/22 05:59:24;;;;;;;33.45;15.65;;;;;;;6.90;57.46;102905.00;5005939;28;20097;-70
2022/03/22 06:01:49;;;;;;;28.90;14.93;;;;;;;6.95;56.90;102902.16;4991219;28;20029;-70
2022/03/22 06:04:16;;;;;;;36.35;15.73;;;;;;;7.01;56.84;102907.03;5001668;28;21775;-69
2022/03/22 06:06:42;;;;;;;34.00;15.40;;;;;;;7.07;56.66;102905.88;5002749;28;20036;-70
2022/03/22 06:09:07;;;;;;;32.72;15.07;;;;;;;7.02;56.55;102917.25;5009483;28;20033;-70
2022/03/22 06:11:36;;;;;;;34.65;15.93;;;;;;;7.04;56.48;102912.00;5002243;28;20383;-70
2022/03/22 06:14:03;;;;;;;29.73;14.82;;;;;;;7.14;56.69;102917.50;5009765;28;20038;-70
2022/03/22 06:16:29;;;;;;;30.25;14.32;;;;;;;7.15;56.24;102914.84;5002622;28;20029;-70
2022/03/22 06:18:55;;;;;;;34.38;15.80;;;;;;;7.23;56.10;102922.19;4994595;28;20030;-70
2022/03/22 06:21:20;;;;;;;33.20;14.98;;;;;;;7.31;55.63;102922.63;5017891;28;20033;-70
2022/03/22 06:23:47;;;;;;;30.58;15.73;;;;;;;7.33;55.45;102920.78;5017664;28;20029;-70
2022/03/22 06:26:13;;;;;;;28.92;14.52;;;;;;;7.37;55.51;102927.44;4990027;28;20034;-70
2022/03/22 06:28:38;;;;;;;33.72;15.30;;;;;;;7.38;55.10;102928.25;5005140;28;20034;-70
2022/03/22 06:31:04;;;;;;;34.58;15.30;;;;;;;7.45;54.57;102927.03;4990481;28;20450;-70
2022/03/22 06:33:29;;;;;;;32.00;15.02;;;;;;;7.50;54.69;102927.59;4989810;28;20480;-70
2022/03/22 06:35:55;;;;;;;31.45;15.15;;;;;;;7.64;54.26;102929.41;5008106;28;20026;-70
2022/03/22 06:38:20;;;;;;;27.17;14.48;;;;;;;7.72;53.80;102929.00;5004989;28;20459;-70
2022/03/22 06:40:48;;;;;;;25.63;13.90;;;;;;;7.83;53.33;102933.56;5005250;28;20041;-70
2022/03/22 06:43:15;;;;;;;29.95;14.48;;;;;;;7.92;53.12;102925.31;5008203;28;20030;-70
2022/03/22 06:45:42;;;;;;;32.42;14.63;;;;;;;7.98;52.51;102928.34;5005351;28;20030;-70
2022/03/22 06:48:07;;;;;;;26.92;13.75;;;;;;;8.12;52.66;102937.09;4987149;28;20046;-70
2022/03/22 06:50:34;;;;;;;28.52;13.80;;;;;;;8.44;51.97;102932.69;5000599;28;20030;-70
2022/03/22 06:52:59;;;;;;;27.92;14.63;;;;;;;8.76;50.47;102940.28;5008340;28;20120;-70
2022/03/22 06:55:25;;;;;;;26.58;13.88;;;;;;;9.16;49.44;102941.28;4985881;28;20042;-70
2022/03/22 06:57:51;;;;;;;32.17;14.52;;;;;;;9.48;48.71;102938.44;4993847;28;20034;-70
2022/03/22 07:00:19;;;;;;;29.80;14.80;;;;;;;9.79;48.14;102936.47;4991348;28;20049;-70
2022/03/22 07:02:47;;;;;;;30.90;15.00;;;;;;;9.89;47.65;102937.56;5006084;28;20395;-70
2022/03/22 07:05:13;;;;;;;26.95;14.13;;;;;;;10.19;47.34;102936.50;5004702;28;20034;-70
2022/03/22 07:07:39;;;;;;;28.50;14.98;;;;;;;10.27;46.45;102931.63;4993659;28;20479;-70
2022/03/22 07:10:06;;;;;;;30.50;14.18;;;;;;;10.60;45.22;102932.88;4986832;28;20067;-70
2022/03/22 07:12:32;;;;;;;29.15;14.32;;;;;;;10.75;45.38;102937.97;5005826;28;20038;-71
2022/03/22 07:14:58;;;;;;;29.38;13.82;;;;;;;10.77;44.79;102949.91;4986846;28;20076;-70
2022/03/22 07:17:23;;;;;;;30.88;14.57;;;;;;;10.79;45.09;102942.84;4983211;28;20519;-70
2022/03/22 07:19:49;;;;;;;28.63;15.38;;;;;;;11.00;44.50;102940.56;4986234;28;20026;-70
2022/03/22 07:22:15;;;;;;;24.70;13.50;;;;;;;10.96;43.92;102946.06;4991807;28;20526;-70
2022/03/22 07:24:40;;;;;;;29.13;15.15;;;;;;;11.33;43.88;102939.13;4988507;28;20471;-70
2022/03/22 07:27:06;;;;;;;31.70;15.20;;;;;;;11.72;42.83;102942.41;4991603;28;20030;-70
2022/03/22 07:29:32;;;;;;;31.92;14.43;;;;;;;11.67;42.47;102942.72;4980458;28;20037;-71
2022/03/22 07:31:59;;;;;;;33.35;14.27;;;;;;;11.75;41.93;102951.72;4975297;28;20038;-70
2022/03/22 07:34:26;;;;;;;30.23;13.68;;;;;;;11.68;42.20;102949.59;4986578;28;20399;-70
2022/03/22 07:36:55;;;;;;;26.55;13.80;;;;;;;12.10;41.41;102951.78;5018426;28;20029;-70
2022/03/22 07:39:23;;;;;;;27.85;15.05;;;;;;;12.52;40.78;102946.06;4995315;28;20061;-70
2022/03/22 07:41:49;;;;;;;24.00;13.65;;;;;;;12.34;41.08;102946.53;5005835;28;20079;-70
2022/03/22 07:44:15;;;;;;;31.60;15.57;;;;;;;12.12;40.88;102954.28;4986134;28;20042;-69
2022/03/22 07:46:44;;;;;;;33.03;14.60;;;;;;;12.13;40.59;102941.16;5005418;28;20061;-70
2022/03/22 07:54:39;;;;;;;34.25;14.27;;;;;;;12.66;40.22;102938.06;5003608;28;20100;-70
2022/03/22 07:57:07;;;;;;;23.33;13.57;;;;;;;12.76;39.64;102943.38;5007557;28;20494;-70
2022/03/22 07:59:33;;;;;;;25.63;14.00;;;;;;;13.04;38.90;102945.47;4981883;28;20107;-70
2022/03/22 08:01:58;;;;;;;28.75;13.80;;;;;;;13.15;38.74;102944.66;5001154;28;20022;-71
2022/03/22 08:04:24;;;;;;;24.30;13.45;;;;;;;13.44;38.55;102941.53;5003924;28;20029;-71
2022/03/22 08:06:49;;;;;;;25.95;14.30;;;;;;;13.50;37.86;102945.44;4989768;28;20044;-70
2022/03/22 08:09:15;;;;;;;30.63;13.80;;;;;;;13.73;37.79;102944.41;5006303;28;20033;-71
2022/03/22 08:11:41;;;;;;;31.60;14.95;;;;;;;13.44;38.26;102950.16;4998200;28;20042;-71
2022/03/22 08:14:07;;;;;;;28.27;14.15;;;;;;;13.61;38.18;102941.00;4987827;28;20089;-71
2022/03/22 08:16:33;;;;;;;32.80;14.98;;;;;;;14.17;37.59;102949.53;4986718;28;20045;-71
2022/03/22 08:18:58;;;;;;;28.25;14.63;;;;;;;14.41;38.03;102944.88;4998588;28;20129;-71
2022/03/22 08:21:23;;;;;;;26.27;12.30;;;;;;;14.43;36.72;102946.50;4981659;28;20388;-71
2022/03/22 08:23:49;;;;;;;25.90;14.13;;;;;;;14.54;36.48;102954.25;4972219;28;20475;-69
2022/03/22 08:26:15;;;;;;;28.60;14.05;;;;;;;14.63;35.81;102958.72;5004724;28;20036;-69
2022/03/22 08:28:40;;;;;;;25.15;13.95;;;;;;;14.26;36.57;102956.59;5005639;28;20034;-69
2022/03/22 08:31:06;;;;;;;27.17;13.98;;;;;;;14.26;36.62;102953.13;5007244;28;20468;-69
2022/03/22 08:33:32;;;;;;;28.58;15.60;;;;;;;14.25;37.20;102954.94;5009754;28;20427;-69
2022/03/22 08:35:57;;;;;;;25.38;13.73;;;;;;;14.95;36.84;102950.75;4990693;28;20397;-69
2022/03/22 08:38:27;;;;;;;24.25;14.07;;;;;;;15.26;37.34;102947.28;4996596;28;20091;-69
2022/03/22 08:40:56;;;;;;;28.33;14.35;;;;;;;15.08;35.70;102950.50;5004593;28;20115;-69
2022/03/22 08:43:24;;;;;;;26.42;14.07;;;;;;;14.54;36.60;102954.25;5004636;28;20033;-69
2022/03/22 08:45:50;;;;;;;27.23;13.93;;;;;;;15.15;36.23;102945.59;4986866;28;20034;-69
2022/03/22 08:48:15;;;;;;;23.98;13.82;;;;;;;15.17;35.45;102943.66;4999510;28;20080;-69
2022/03/22 08:50:44;;;;;;;31.55;15.30;;;;;;;15.12;36.70;102946.66;5005249;28;20388;-69
2022/03/22 08:53:11;;;;;;;29.98;14.80;;;;;;;14.87;35.84;102945.38;5008810;28;20026;-69
2022/03/22 08:55:36;;;;;;;25.02;14.27;;;;;;;14.99;35.53;102946.09;4995891;28;20080;-69
2022/03/22 08:58:06;;;;;;;25.23;15.13;;;;;;;15.33;35.82;102943.97;4992869;28;20037;-69
2022/03/22 09:00:35;;;;;;;27.45;14.27;;;;;;;15.47;36.18;102941.94;4987129;28;20025;-69
2022/03/22 09:03:02;;;;;;;24.33;13.32;;;;;;;16.03;34.93;102937.78;4986588;28;20045;-69
2022/03/22 09:08:13;;;;;;;33.40;15.55;;;;;;;16.04;34.92;102944.69;4991612;28;20381;-69
2022/03/22 09:10:38;;;;;;;25.23;14.25;;;;;;;16.22;35.79;102935.16;4989445;28;20034;-69
2022/03/22 09:13:05;;;;;;;22.95;13.25;;;;;;;16.59;34.94;102941.38;4993443;28;20045;-69
2022/03/22 09:15:31;;;;;;;25.20;13.63;;;;;;;16.52;34.38;102931.47;5008763;28;20377;-69
2022/03/22 09:17:57;;;;;;;24.05;13.13;;;;;;;16.22;34.96;102932.53;4991164;28;20033;-69
2022/03/22 09:20:24;;;;;;;26.10;13.57;;;;;;;16.20;34.81;102928.41;4988216;28;20058;-69
2022/03/22 09:22:51;;;;;;;25.20;13.35;;;;;;;16.40;35.43;102931.78;5006004;28;20044;-69
2022/03/22 09:25:18;;;;;;;23.98;14.43;;;;;;;15.83;35.91;102937.81;5003837;28;20038;-69
2022/03/22 09:27:44;;;;;;;24.05;13.27;;;;;;;15.69;36.73;102932.97;5007646;28;20196;-69
2022/03/22 09:30:12;;;;;;;27.08;14.07;;;;;;;15.75;36.97;102929.84;4999153;28;20480;-69
2022/03/22 09:32:39;;;;;;;31.40;14.07;;;;;;;15.83;36.23;102927.38;5006640;28;20022;-69
2022/03/22 09:35:07;;;;;;;25.67;13.80;;;;;;;16.05;37.37;102928.84;4980201;28;20488;-69
2022/03/22 09:37:43;;;;;;;26.13;14.50;;;;;;;16.01;36.78;102929.25;5009857;28;20403;-69
2022/03/22 09:40:11;;;;;;;30.23;14.73;;;;;;;16.09;36.72;102924.16;4987523;28;20496;-69
2022/03/22 09:42:43;;;;;;;30.17;12.90;;;;;;;16.32;38.05;102917.63;4988370;28;20030;-69
2022/03/22 09:45:11;;;;;;;26.77;13.80;;;;;;;16.45;36.42;102919.91;5000204;28;20056;-69
2022/03/22 09:47:37;;;;;;;23.35;12.88;;;;;;;16.09;36.52;102918.94;5013418;28;20030;-70
2022/03/22 09:50:06;;;;;;;27.17;13.40;;;;;;;15.86;35.37;102918.41;5003609;28;20044;-70
2022/03/22 09:52:31;;;;;;;24.73;13.18;;;;;;;15.95;36.26;102917.56;5012355;28;20034;-70
2022/03/22 09:54:57;;;;;;;23.17;13.73;;;;;;;15.95;35.29;102917.56;5000935;28;20749;-69
2022/03/22 09:57:22;;;;;;;27.52;15.13;;;;;;;16.12;36.19;102914.25;4984407;28;20466;-70
2022/03/22 09:59:48;;;;;;;27.75;14.15;;;;;;;16.21;34.89;102914.34;5014222;28;20029;-70
2022/03/22 10:02:13;;;;;;;25.48;13.23;;;;;;;16.28;34.72;102911.03;4990659;28;20047;-69
2022/03/22 10:04:42;;;;;;;21.50;11.93;;;;;;;16.21;35.43;102912.56;4987808;28;20084;-70
2022/03/22 10:07:16;;;;;;;26.88;12.98;;;;;;;16.31;35.56;102904.66;5010060;28;20471;-70
2022/03/22 10:09:41;;;;;;;24.05;12.25;;;;;;;16.19;34.64;102909.25;4984732;28;20069;-70
2022/03/22 10:12:10;;;;;;;26.10;12.23;;;;;;;16.39;36.43;102901.31;5006556;28;20041;-69
2022/03/22 10:14:40;;;;;;;25.38;13.40;;;;;;;16.45;36.67;102898.97;5010421;28;20460;-70
2022/03/22 10:17:18;;;;;;;28.08;13.15;;;;;;;16.61;35.82;102894.91;4992437;28;20065;-70
2022/03/22 10:19:49;;;;;;;22.13;12.30;;;;;;;16.86;34.44;102894.25;5010819;28;20417;-70
2022/03/22 10:22:15;;;;;;;22.15;12.38;;;;;;;16.91;35.13;102891.19;4988460;28;20049;-69
2022/03/22 10:24:46;;;;;;;21.42;11.45;;;;;;;16.97;33.47;102889.78;4993156;28;20034;-70
2022/03/22 10:27:29;;;;;;;20.83;12.02;;;;;;;17.01;32.36;102886.72;4999480;28;20030;-69
2022/03/22 10:29:58;;;;;;;28.73;12.25;;;;;;;16.96;31.62;102883.72;4999274;28;20036;-70
2022/03/22 10:32:44;;;;;;;23.35;12.68;;;;;;;16.91;32.62;102885.94;4996245;28;20046;-70
2022/03/22 10:35:17;;;;;;;25.85;11.60;;;;;;;17.02;33.08;102882.31;5005618;28;20042;-70
2022/03/22 10:37:47;;;;;;;25.20;12.48;;;;;;;17.02;31.74;102885.75;5020484;28;20036;-70
2022/03/22 10:40:44;;;;;;;33.75;13.63;;;;;;;16.87;31.61;102884.59;5006352;28;20634;-70
2022/03/22 10:43:12;;;;;;;22.63;11.07;;;;;;;17.00;30.92;102889.50;5006788;28;20120;-69
2022/03/22 10:46:02;;;;;;;22.67;11.63;;;;;;;17.05;29.82;102890.69;5013092;28;20091;-70
2022/03/22 10:48:32;;;;;;;28.15;13.82;;;;;;;16.96;31.47;102888.16;5004083;28;20042;-70
2022/03/22 10:50:59;;;;;;;28.90;13.20;;;;;;;16.83;32.52;102891.13;4991965;28;20295;-70
2022/03/22 10:53:26;;;;;;;21.50;12.40;;;;;;;17.14;31.38;102889.00;5002217;28;20037;-70
2022/03/22 10:55:52;;;;;;;21.95;12.25;;;;;;;17.12;32.13;102888.28;4991460;28;20123;-70
2022/03/22 10:58:23;;;;;;;19.83;11.80;;;;;;;17.35;33.67;102887.84;5006637;28;20109;-69
2022/03/22 11:00:49;;;;;;;24.20;12.52;;;;;;;17.45;30.92;102884.19;4991104;28;20314;-70
2022/03/22 11:03:19;;;;;;;21.33;10.95;;;;;;;17.40;29.63;102891.66;4979499;28;20526;-70
2022/03/22 11:05:46;;;;;;;19.73;10.88;;;;;;;17.42;29.28;102881.88;4981569;28;20044;-70
2022/03/22 11:08:12;;;;;;;20.40;11.15;;;;;;;17.46;29.74;102875.34;4988154;28;20021;-70
2022/03/22 11:10:39;;;;;;;19.33;10.98;;;;;;;17.53;30.50;102878.19;4987519;28;20543;-69
2022/03/22 11:13:05;;;;;;;20.90;11.45;;;;;;;17.73;30.22;102875.38;4983654;28;20069;-70
2022/03/22 11:15:37;;;;;;;19.55;11.95;;;;;;;17.79;29.28;102870.34;4989703;28;20428;-70
2022/03/22 11:18:05;;;;;;;23.67;12.07;;;;;;;17.68;30.29;102874.03;5003721;28;20091;-70
2022/03/22 11:20:30;;;;;;;21.80;11.23;;;;;;;17.65;29.46;102866.47;4988865;28;20994;-70
2022/03/22 11:22:57;;;;;;;20.58;10.85;;;;;;;17.64;29.12;102862.19;5006250;28;20034;-70
2022/03/22 11:25:35;;;;;;;16.23;10.60;;;;;;;17.57;29.97;102866.41;4984272;28;20083;-69
2022/03/22 11:28:08;;;;;;;24.77;12.50;;;;;;;17.79;28.97;102853.78;5001801;28;20045;-70
2022/03/22 11:30:36;;;;;;;18.60;10.77;;;;;;;17.78;29.29;102857.38;5000571;28;20042;-70
2022/03/22 11:35:53;;;;;;;23.55;10.90;;;;;;;17.94;27.95;102851.44;4988580;28;20026;-70
2022/03/22 11:38:49;;;;;;;23.52;11.30;;;;;;;17.88;28.02;102850.25;4998910;28;20036;-70
2022/03/22 11:44:27;;;;;;;20.02;11.32;;;;;;;18.19;28.08;102844.50;5004449;28;20064;-70
2022/03/22 11:47:11;;;;;;;23.80;10.40;;;;;;;18.15;29.32;102849.25;4995694;28;20029;-70
2022/03/22 11:50:07;;;;;;;23.27;12.15;;;;;;;17.97;29.06;102841.47;5003112;28;20038;-70
2022/03/22 11:52:32;;;;;;;24.05;9.93;;;;;;;18.16;27.97;102840.41;4994804;28;20064;-70
2022/03/22 11:55:09;;;;;;;20.33;10.93;;;;;;;18.12;27.66;102841.72;5005809;28;20042;-70
2022/03/22 11:57:44;;;;;;;21.05;10.07;;;;;;;18.17;27.59;102838.59;5004841;28;20032;-70
2022/03/22 12:00:11;;;;;;;22.92;10.75;;;;;;;18.30;27.65;102831.09;5015370;28;20045;-70
2022/03/22 12:02:38;;;;;;;20.25;11.25;;;;;;;18.32;27.26;102838.84;5003467;28;20037;-70
2022/03/22 12:05:04;;;;;;;25.15;11.80;;;;;;;18.23;28.57;102843.22;4999685;28;21649;-70
2022/03/22 12:07:36;;;;;;;21.55;10.90;;;;;;;18.39;28.29;102834.59;4982941;28;20566;-73